Time;durP1;ratioP1;P1;durP2;ratioP2;P2;SDS_P1;SDS_P2;PMS_P1;PMS_P2;Temp;Humidity;BMP_temperature;BMP_pressure;BME280_temperature;BME280_humidity;BME280_pressure;Samples;Min_cycle;Max_cycle;Signal;HPM_P1;HPM_P2
2023/01/04 00:01:02;;;;;;;15.07;8.77;;;6.30;26.30;;;;;;5027656;28;20524;-71
2023/01/04 00:03:29;;;;;;;15.20;7.97;;;6.30;24.80;;;;;;5031755;28;20170;-68
2023/01/04 00:05:57;;;;;;;9.80;6.73;;;6.20;20.90;;;;;;5018962;28;20451;-70
2023/01/04 00:08:22;;;;;;;12.60;7.07;;;6.20;20.50;;;;;;5028455;28;20509;-70
2023/01/04 00:10:48;;;;;;;8.50;5.73;;;6.10;19.10;;;;;;5026652;28;20461;-70
2023/01/04 00:13:13;;;;;;;10.17;6.90;;;6.00;14.50;;;;;;5030740;28;20184;-70
2023/01/04 00:15:39;;;;;;;10.10;6.43;;;6.20;13.90;;;;;;5027475;28;20179;-70
2023/01/04 00:18:04;;;;;;;8.10;5.77;;;5.80;16.00;;;;;;5031223;28;20189;-70
2023/01/04 00:20:30;;;;;;;10.57;7.10;;;5.70;13.20;;;;;;5029699;28;20209;-70
2023/01/04 00:22:56;;;;;;;9.13;6.00;;;5.60;16.60;;;;;;5023370;28;20170;-71
2023/01/04 00:25:22;;;;;;;8.27;6.27;;;5.60;16.70;;;;;;5046084;28;20320;-70
2023/01/04 00:27:49;;;;;;;9.77;6.33;;;5.90;12.90;;;;;;5030162;28;20405;-70
2023/01/04 00:30:15;;;;;;;11.80;5.87;;;5.30;11.30;;;;;;5028543;28;20746;-70
2023/01/04 00:32:40;;;;;;;9.53;6.60;;;5.30;13.80;;;;;;5025187;28;20424;-70
2023/01/04 00:35:06;;;;;;;8.13;5.90;;;5.60;14.10;;;;;;5040379;28;20189;-71
2023/01/04 00:37:31;;;;;;;10.23;6.60;;;5.20;12.30;;;;;;5030704;28;20162;-70
2023/01/04 00:39:57;;;;;;;11.00;6.50;;;5.30;11.30;;;;;;5031557;28;20672;-69
2023/01/04 00:42:22;;;;;;;8.37;6.17;;;5.40;10.30;;;;;;5029057;28;20166;-70
2023/01/04 00:44:48;;;;;;;8.40;6.00;;;5.30;11.60;;;;;;5031390;28;20196;-70
2023/01/04 00:47:13;;;;;;;10.83;6.40;;;5.00;13.00;;;;;;5022406;28;20177;-70
2023/01/04 00:49:39;;;;;;;9.83;6.37;;;5.00;12.10;;;;;;5037150;28;20739;-70
2023/01/04 00:52:05;;;;;;;8.30;5.80;;;4.90;10.60;;;;;;5020682;28;20209;-70
2023/01/04 00:54:31;;;;;;;9.83;6.13;;;4.90;10.60;;;;;;5027338;28;20162;-71
2023/01/04 00:56:57;;;;;;;10.27;6.60;;;4.80;11.30;;;;;;5022424;28;20429;-70
2023/01/04 00:59:22;;;;;;;10.60;6.47;;;4.80;12.20;;;;;;5025770;28;20201;-70
2023/01/04 01:01:48;;;;;;;9.93;6.23;;;4.90;13.40;;;;;;5028909;28;20197;-70
2023/01/04 01:04:16;;;;;;;10.17;7.10;;;5.00;15.10;;;;;;5030778;28;20712;-69
2023/01/04 01:06:42;;;;;;;12.10;6.77;;;5.10;15.60;;;;;;5026892;28;20436;-70
2023/01/04 01:09:08;;;;;;;13.67;6.63;;;4.70;15.70;;;;;;5030794;28;20427;-71
2023/01/04 01:11:38;;;;;;;10.17;6.30;;;4.60;16.20;;;;;;5026081;28;20205;-71
2023/01/04 01:14:04;;;;;;;11.33;6.93;;;4.70;16.20;;;;;;5016312;28;20432;-70
2023/01/04 01:16:30;;;;;;;10.40;7.00;;;4.60;15.50;;;;;;5029921;28;20421;-71
2023/01/04 01:18:55;;;;;;;10.50;7.00;;;4.90;20.10;;;;;;5027236;28;20468;-70
2023/01/04 01:21:23;;;;;;;10.40;6.70;;;4.60;18.70;;;;;;5025697;28;20529;-70
2023/01/04 01:23:49;;;;;;;8.87;6.73;;;4.60;19.40;;;;;;5028623;28;20177;-70
2023/01/04 01:26:18;;;;;;;10.20;6.77;;;4.60;17.80;;;;;;5037271;28;20472;-71
2023/01/04 01:28:44;;;;;;;10.43;7.00;;;4.60;18.00;;;;;;5027588;28;20182;-70
2023/01/04 01:31:15;;;;;;;8.70;6.90;;;4.60;22.00;;;;;;5028580;28;20456;-70
2023/01/04 01:33:43;;;;;;;11.87;7.20;;;4.70;20.90;;;;;;5022955;28;20440;-70
2023/01/04 01:36:10;;;;;;;12.13;7.57;;;4.70;23.40;;;;;;5030508;28;20452;-70
2023/01/04 01:38:37;;;;;;;12.40;7.43;;;4.80;23.60;;;;;;5029750;28;20456;-70
2023/01/04 01:41:03;;;;;;;12.20;7.80;;;4.70;21.40;;;;;;5026481;28;20449;-69
2023/01/04 01:43:47;;;;;;;13.33;7.30;;;4.70;27.00;;;;;;5022157;28;20511;-70
2023/01/04 01:46:15;;;;;;;8.97;7.10;;;4.70;21.70;;;;;;5024084;28;20404;-70
2023/01/04 01:48:41;;;;;;;12.10;7.57;;;4.70;23.40;;;;;;5023330;28;20427;-70
2023/01/04 01:51:07;;;;;;;8.97;6.70;;;4.70;21.20;;;;;;5023132;28;20448;-71
2023/01/04 01:53:36;;;;;;;11.47;6.47;;;4.80;18.90;;;;;;5030067;28;20600;-70
2023/01/04 01:56:06;;;;;;;10.37;7.07;;;4.80;19.80;;;;;;5021007;28;20432;-70
2023/01/04 01:58:38;;;;;;;10.97;6.60;;;4.80;18.10;;;;;;5023040;28;20533;-70
2023/01/04 02:01:04;;;;;;;9.60;7.07;;;4.80;17.60;;;;;;5026012;28;20513;-69
2023/01/04 02:03:35;;;;;;;10.23;6.90;;;4.80;15.30;;;;;;5023162;28;20436;-71
2023/01/04 02:06:04;;;;;;;10.40;7.20;;;4.80;16.30;;;;;;5021870;28;20601;-71
2023/01/04 02:08:30;;;;;;;12.40;7.80;;;4.80;18.70;;;;;;5029453;28;20432;-70
2023/01/04 02:10:56;;;;;;;11.37;7.30;;;4.80;31.20;;;;;;5020208;28;20449;-70
2023/01/04 02:14:25;;;;;;;11.80;7.20;;;4.80;33.40;;;;;;5027615;28;20490;-71
2023/01/04 02:16:15;;;;;;;9.90;7.10;;;5.00;34.90;;;;;;5029591;28;20208;-71
2023/01/04 02:19:00;;;;;;;11.07;7.60;;;5.10;28.40;;;;;;5021010;28;20467;-70
2023/01/04 02:22:01;;;;;;;10.10;7.37;;;5.20;35.00;;;;;;5027956;28;20472;-72
2023/01/04 02:24:51;;;;;;;11.03;8.07;;;5.40;35.20;;;;;;5029088;28;20420;-71
2023/01/04 02:27:54;;;;;;;12.67;8.50;;;5.40;35.10;;;;;;5022092;28;20429;-70
2023/01/04 02:30:43;;;;;;;11.57;8.23;;;5.60;35.30;;;;;;5015503;28;20954;-71
2023/01/04 02:33:23;;;;;;;15.43;8.10;;;5.70;35.40;;;;;;5020392;28;20412;-71
2023/01/04 02:36:16;;;;;;;9.93;7.37;;;5.80;35.40;;;;;;5020201;28;20436;-72
2023/01/04 02:39:14;;;;;;;12.73;8.30;;;5.90;31.60;;;;;;5029651;28;20452;-71
2023/01/04 02:41:45;;;;;;;10.97;7.83;;;5.90;28.90;;;;;;5026745;28;20448;-71
2023/01/04 02:47:06;;;;;;;12.00;7.70;;;6.00;26.70;;;;;;5024175;28;20549;-71
2023/01/04 02:52:16;;;;;;;11.63;7.60;;;6.10;22.80;;;;;;5020794;28;20666;-71
2023/01/04 02:54:44;;;;;;;8.60;7.20;;;6.10;22.50;;;;;;5023513;28;20923;-71
2023/01/04 02:57:56;;;;;;;12.10;7.20;;;6.10;23.30;;;;;;5026193;28;20451;-71
2023/01/04 03:00:25;;;;;;;12.40;7.60;;;6.10;22.00;;;;;;4981070;28;20462;-71
2023/01/04 03:06:15;;;;;;;10.90;7.37;;;6.10;19.70;;;;;;5029308;28;20775;-70
2023/01/04 03:09:04;;;;;;;13.50;7.20;;;6.10;20.50;;;;;;5020476;28;20443;-70
2023/01/04 03:14:28;;;;;;;12.37;7.20;;;6.00;24.10;;;;;;5023776;28;20408;-71
2023/01/04 03:16:54;;;;;;;15.03;7.23;;;6.00;23.60;;;;;;5025643;28;20416;-70
2023/01/04 03:19:50;;;;;;;11.63;8.10;;;6.00;25.90;;;;;;5038745;28;20966;-72
2023/01/04 03:35:21;;;;;;;12.17;7.47;;;6.00;24.50;;;;;;5021819;28;20469;-70
2023/01/04 03:36:17;;;;;;;14.83;9.00;;;6.10;26.80;;;;;;5021141;28;20416;-70
2023/01/04 03:50:53;;;;;;;13.67;9.43;;;5.90;24.30;;;;;;5025754;28;20455;-71
2023/01/04 03:53:20;;;;;;;15.83;10.10;;;6.10;26.00;;;;;;5028288;28;20408;-70
2023/01/04 03:55:47;;;;;;;17.93;10.20;;;6.10;25.80;;;;;;5021920;28;20499;-70
2023/01/04 03:58:13;;;;;;;18.73;9.60;;;6.10;28.40;;;;;;5027274;28;20923;-70
2023/01/04 04:00:38;;;;;;;15.47;10.10;;;6.10;27.50;;;;;;5033652;28;20927;-70
2023/01/04 04:03:06;;;;;;;19.20;12.07;;;6.20;27.90;;;;;;5018513;28;20436;-67
2023/01/04 04:08:27;;;;;;;17.57;11.37;;;6.20;25.90;;;;;;5015340;28;20442;-70
2023/01/04 04:13:47;;;;;;;18.60;11.73;;;6.20;28.10;;;;;;5028052;28;20416;-69
2023/01/04 04:16:13;;;;;;;18.53;11.47;;;6.20;28.20;;;;;;5028267;28;20495;-69
2023/01/04 04:18:39;;;;;;;17.80;12.33;;;6.20;28.30;;;;;;5018184;28;20556;-70
2023/01/04 04:21:04;;;;;;;19.03;10.77;;;6.30;26.90;;;;;;5027344;28;20190;-69
2023/01/04 04:23:30;;;;;;;24.50;12.40;;;6.30;27.00;;;;;;5025722;28;20182;-68
2023/01/04 04:25:55;;;;;;;21.90;12.30;;;6.30;27.70;;;;;;5018461;28;20183;-70
2023/01/04 04:28:21;;;;;;;21.70;12.10;;;6.40;27.30;;;;;;5010905;28;20182;-69
2023/01/04 04:30:50;;;;;;;16.87;11.87;;;6.40;24.90;;;;;;5025586;28;20209;-70
2023/01/04 04:33:15;;;;;;;19.77;12.00;;;6.40;26.20;;;;;;5018875;28;20719;-70
2023/01/04 04:35:41;;;;;;;19.10;12.00;;;6.40;24.30;;;;;;5027862;28;20413;-69
2023/01/04 04:38:06;;;;;;;20.83;11.80;;;6.50;24.90;;;;;;5018563;28;20193;-69
2023/01/04 04:43:16;;;;;;;20.80;11.53;;;6.60;24.00;;;;;;5026103;28;20216;-69
2023/01/04 04:45:42;;;;;;;19.20;12.30;;;6.50;25.30;;;;;;5020141;28;20449;-70
2023/01/04 04:48:08;;;;;;;21.43;12.97;;;6.60;25.70;;;;;;5026396;28;20200;-69
2023/01/04 04:50:33;;;;;;;25.40;13.40;;;6.60;25.90;;;;;;5027394;28;20190;-69
2023/01/04 04:52:58;;;;;;;21.90;12.90;;;6.70;24.70;;;;;;5029359;28;20173;-67
2023/01/04 04:55:24;;;;;;;23.37;13.50;;;6.70;25.60;;;;;;5029147;28;20181;-69
2023/01/04 04:57:50;;;;;;;21.90;13.40;;;6.70;24.90;;;;;;5030481;28;20260;-69
2023/01/04 05:00:16;;;;;;;26.77;13.20;;;6.80;23.20;;;;;;5028960;28;20627;-70
2023/01/04 05:02:41;;;;;;;21.33;12.70;;;6.70;25.60;;;;;;5028632;28;20197;-70
2023/01/04 05:05:07;;;;;;;20.80;13.07;;;6.80;24.90;;;;;;5030417;28;20428;-70
2023/01/04 05:07:33;;;;;;;26.10;14.17;;;6.80;25.00;;;;;;5027397;28;20182;-70
2023/01/04 05:09:59;;;;;;;20.90;12.67;;;;;;;;;;5030691;28;20261;-69
2023/01/04 05:13:09;;;;;;;21.80;11.97;;;6.80;23.90;;;;;;5023971;28;20672;-68
2023/01/04 05:15:13;;;;;;;25.20;13.60;;;6.90;25.80;;;;;;5021934;28;20639;-69
2023/01/04 05:17:38;;;;;;;21.40;13.83;;;6.90;27.80;;;;;;5014803;28;20523;-68
2023/01/04 05:20:04;;;;;;;22.70;13.23;;;6.90;29.40;;;;;;5029267;28;20296;-70
2023/01/04 05:22:30;;;;;;;24.37;13.43;;;6.90;30.00;;;;;;5021143;28;20210;-70
2023/01/04 05:24:55;;;;;;;19.43;12.53;;;6.90;30.50;;;;;;5027072;28;20249;-70
2023/01/04 05:27:21;;;;;;;21.90;12.20;;;6.90;30.00;;;;;;5027278;28;20270;-70
2023/01/04 05:32:30;;;;;;;21.03;12.00;;;6.90;29.70;;;;;;5024585;28;20263;-70
2023/01/04 05:34:56;;;;;;;19.63;12.63;;;6.90;36.30;;;;;;5028049;28;20440;-70
2023/01/04 05:37:21;;;;;;;22.00;12.60;;;6.80;36.20;;;;;;5026493;28;20196;-70
2023/01/04 05:39:47;;;;;;;26.37;13.50;;;6.80;36.20;;;;;;5025139;28;20259;-70
2023/01/04 05:42:24;;;;;;;24.37;13.23;;;6.70;36.30;;;;;;5028558;28;20193;-71
2023/01/04 05:44:51;;;;;;;22.10;12.90;;;6.80;36.30;;;;;;5017319;28;20174;-71
2023/01/04 05:47:17;;;;;;;21.37;13.20;;;6.80;36.30;;;;;;5028804;28;20437;-70
2023/01/04 05:49:42;;;;;;;22.87;13.20;;;6.90;36.30;;;;;;5030341;28;20791;-70
2023/01/04 05:52:08;;;;;;;25.17;13.23;;;6.90;36.20;;;;;;5016219;28;20212;-71
2023/01/04 05:54:34;;;;;;;22.53;13.07;;;6.90;36.30;;;;;;5029460;28;20208;-70
2023/01/04 05:56:59;;;;;;;19.20;11.33;;;7.00;36.50;;;;;;5028196;28;20189;-70
2023/01/04 05:59:25;;;;;;;19.70;12.00;;;7.00;32.30;;;;;;5029670;28;20186;-70
2023/01/04 06:01:50;;;;;;;18.10;11.77;;;7.00;36.20;;;;;;5028625;28;20368;-71
2023/01/04 06:04:16;;;;;;;16.97;11.93;;;7.00;36.00;;;;;;5024819;28;20179;-72
2023/01/04 06:06:41;;;;;;;19.33;11.70;;;7.00;36.30;;;;;;5025956;28;20734;-70
2023/01/04 06:09:07;;;;;;;21.20;12.40;;;7.00;33.50;;;;;;5022571;28;20169;-71
2023/01/04 06:11:32;;;;;;;23.47;13.57;;;7.00;36.30;;;;;;5025140;28;20197;-72
2023/01/04 06:13:58;;;;;;;19.53;12.00;;;7.10;32.50;;;;;;5028069;28;20177;-70
2023/01/04 06:16:23;;;;;;;17.63;11.67;;;7.10;31.70;;;;;;5024891;28;20186;-70
2023/01/04 06:18:49;;;;;;;20.00;12.03;;;7.10;32.60;;;;;;5025270;28;20645;-71
2023/01/04 06:21:14;;;;;;;20.47;12.07;;;7.10;31.50;;;;;;5028072;28;20668;-71
2023/01/04 06:23:40;;;;;;;19.00;11.07;;;8.10;29.40;;;;;;5027695;28;20169;-70
2023/01/04 06:26:05;;;;;;;23.90;11.73;;;7.10;28.10;;;;;;5013740;28;21114;-70
2023/01/04 06:28:31;;;;;;;20.60;11.90;;;7.10;28.40;;;;;;5018150;28;20183;-71
2023/01/04 06:30:56;;;;;;;21.43;11.97;;;6.90;33.90;;;;;;5020135;28;20282;-70
2023/01/04 06:33:22;;;;;;;22.90;12.53;;;6.90;36.30;;;;;;5027418;28;20180;-71
2023/01/04 06:35:54;;;;;;;19.73;11.93;;;6.80;36.30;;;;;;5020230;28;20220;-70
2023/01/04 06:38:20;;;;;;;18.97;11.70;;;6.90;36.40;;;;;;5028639;28;21050;-71
2023/01/04 06:40:46;;;;;;;18.80;11.40;;;6.90;36.30;;;;;;5028551;28;20437;-70
2023/01/04 06:43:11;;;;;;;21.20;11.73;;;6.90;36.30;;;;;;5018960;28;20216;-70
2023/01/04 06:45:37;;;;;;;18.40;10.60;;;7.00;36.40;;;;;;5025440;28;20249;-70
2023/01/04 06:48:02;;;;;;;17.33;10.80;;;7.00;36.30;;;;;;5023452;28;20178;-70
2023/01/04 06:50:28;;;;;;;18.47;11.00;;;7.10;34.90;;;;;;5027139;28;20197;-72
2023/01/04 06:52:53;;;;;;;20.43;11.70;;;7.00;36.40;;;;;;5017088;28;20266;-70
2023/01/04 06:55:19;;;;;;;18.13;10.67;;;7.00;36.30;;;;;;5025576;28;20197;-70
2023/01/04 06:57:44;;;;;;;13.20;9.37;;;7.00;36.40;;;;;;5021071;28;20237;-71
2023/01/04 07:00:11;;;;;;;16.13;9.80;;;7.00;36.30;;;;;;5017973;28;20205;-71
2023/01/04 07:02:36;;;;;;;18.83;10.30;;;7.00;36.50;;;;;;5022656;28;20166;-70
2023/01/04 07:05:02;;;;;;;18.33;10.90;;;7.00;36.40;;;;;;5027682;28;20954;-71
2023/01/04 07:07:27;;;;;;;21.10;11.67;;;7.00;36.50;;;;;;5016199;28;20182;-71
2023/01/04 07:09:53;;;;;;;16.70;10.93;;;7.00;36.40;;;;;;5041752;28;20178;-71
2023/01/04 07:12:18;;;;;;;17.37;10.90;;;7.00;36.60;;;;;;5022500;28;20200;-71
2023/01/04 07:14:44;;;;;;;15.97;10.13;;;7.30;36.70;;;;;;5025856;28;20181;-70
2023/01/04 07:17:09;;;;;;;15.40;10.40;;;6.90;36.30;;;;;;5022627;28;20177;-70
2023/01/04 07:19:35;;;;;;;12.70;8.47;;;6.90;36.50;;;;;;5015686;28;20282;-71
2023/01/04 07:22:01;;;;;;;12.63;9.03;;;6.90;36.30;;;;;;5013360;28;20201;-72
2023/01/04 07:24:26;;;;;;;12.73;7.73;;;6.90;36.40;;;;;;5020847;28;20169;-70
2023/01/04 07:26:52;;;;;;;11.70;8.33;;;6.90;36.50;;;;;;5026054;28;20656;-68
2023/01/04 07:29:18;;;;;;;12.53;8.07;;;7.00;36.50;;;;;;5024652;28;20184;-70
2023/01/04 07:31:53;;;;;;;13.97;7.67;;;7.00;36.50;;;;;;5024839;28;20520;-69
2023/01/04 07:34:22;;;;;;;12.80;7.30;;;7.00;36.50;;;;;;5022876;28;20424;-71
2023/01/04 07:36:48;;;;;;;10.47;7.30;;;7.00;36.50;;;;;;5041857;28;20407;-71
2023/01/04 07:39:16;;;;;;;12.30;8.13;;;7.10;36.50;;;;;;5024528;28;20503;-71
2023/01/04 07:41:42;;;;;;;11.67;7.93;;;7.10;36.50;;;;;;5024151;28;20452;-71
2023/01/04 15:41:07;;;;;;;1.33;1.20;;;10.20;1.00;;;;;;5058999;28;20462;-70
2023/01/04 15:43:34;;;;;;;1.90;1.50;;;10.30;1.00;;;;;;5054730;28;20276;-70
2023/01/04 15:46:07;;;;;;;2.40;1.47;;;10.50;1.00;;;;;;5045385;28;20420;-68
2023/01/04 15:48:34;;;;;;;1.30;1.10;;;10.60;1.00;;;;;;5045877;28;20418;-69
2023/01/04 15:51:06;;;;;;;2.33;1.70;;;10.70;1.00;;;;;;5043596;28;20515;-70
2023/01/04 15:53:33;;;;;;;1.63;1.20;;;10.80;1.00;;;;;;5045971;28;20416;-69
2023/01/04 15:56:10;;;;;;;1.37;1.27;;;10.90;1.00;;;;;;5054695;28;20426;-69
2023/01/04 15:58:35;;;;;;;1.70;1.50;;;10.90;1.00;;;;;;5053516;28;20445;-70
2023/01/04 16:01:11;;;;;;;3.10;1.30;;;11.00;1.00;;;;;;5055173;28;20443;-69
2023/01/04 16:03:37;;;;;;;1.87;1.20;;;11.00;1.00;;;;;;5051637;28;20177;-70
2023/01/04 16:06:05;;;;;;;2.50;2.00;;;11.00;1.00;;;;;;5052331;28;20756;-71
2023/01/04 16:08:30;;;;;;;3.20;1.60;;;11.10;1.00;;;;;;5046344;28;20691;-70
2023/01/04 16:10:56;;;;;;;3.20;1.50;;;11.10;1.00;;;;;;5048338;28;20525;-69
2023/01/04 16:13:22;;;;;;;1.93;1.40;;;11.10;1.00;;;;;;5052988;28;20176;-69
2023/01/04 16:15:48;;;;;;;2.20;1.60;;;11.00;1.00;;;;;;5057591;28;20167;-69
2023/01/04 16:18:13;;;;;;;2.40;1.50;;;10.90;1.00;;;;;;5047512;28;20857;-70
2023/01/04 16:20:40;;;;;;;2.17;1.60;;;10.90;1.00;;;;;;5044777;28;20201;-69
2023/01/04 16:23:06;;;;;;;3.77;1.80;;;11.00;1.00;;;;;;5043530;28;20544;-70
2023/01/04 16:25:31;;;;;;;4.90;2.40;;;10.90;1.00;;;;;;5042815;28;20447;-69
2023/01/04 16:27:57;;;;;;;1.83;1.50;;;10.90;1.00;;;;;;5047291;28;20762;-69
2023/01/04 16:30:22;;;;;;;2.53;1.80;;;10.70;1.00;;;;;;5051008;28;20243;-69
2023/01/04 16:32:49;;;;;;;2.77;1.87;;;10.70;1.70;;;;;;5048693;28;20193;-69
2023/01/04 16:35:15;;;;;;;2.73;1.83;;;10.70;1.80;;;;;;5052652;28;20272;-70
2023/01/04 16:37:41;;;;;;;1.90;1.57;;;10.70;1.00;;;;;;5049353;28;20514;-69
2023/01/04 16:40:07;;;;;;;1.60;1.50;;;10.80;1.00;;;;;;5041461;28;20299;-70
2023/01/04 16:42:33;;;;;;;1.70;1.40;;;10.80;1.00;;;;;;5047275;28;20434;-70
2023/01/04 16:44:59;;;;;;;2.07;1.53;;;10.80;1.00;;;;;;5047681;28;20419;-71
2023/01/04 16:47:24;;;;;;;3.63;1.80;;;10.80;1.00;;;;;;5056925;28;20893;-71
2023/01/04 16:49:51;;;;;;;3.93;1.90;;;10.80;1.90;;;;;;5043791;28;20180;-70
2023/01/04 16:52:16;;;;;;;1.83;1.50;;;10.80;1.00;;;;;;5038366;28;20198;-71
2023/01/04 16:54:42;;;;;;;3.20;1.90;;;10.80;2.10;;;;;;5047586;28;20426;-71
2023/01/04 16:57:08;;;;;;;2.50;1.53;;;10.80;1.40;;;;;;5051489;28;20199;-70
2023/01/04 16:59:33;;;;;;;1.73;1.63;;;10.70;1.00;;;;;;5039780;28;20213;-70
2023/01/04 17:01:59;;;;;;;1.97;1.70;;;10.70;1.30;;;;;;5031288;28;20255;-70
2023/01/04 17:04:24;;;;;;;2.60;2.10;;;10.70;1.50;;;;;;5038303;28;20253;-70
2023/01/04 17:06:53;;;;;;;2.10;1.47;;;10.70;3.00;;;;;;5035738;28;20261;-70
2023/01/04 17:09:20;;;;;;;5.27;1.90;;;10.70;3.10;;;;;;5039451;28;20181;-68
2023/01/04 17:12:01;;;;;;;5.40;2.50;;;10.70;2.70;;;;;;5033954;28;20447;-70
2023/01/04 17:14:29;;;;;;;3.50;2.53;;;10.70;2.10;;;;;;5031359;28;20400;-70
2023/01/04 17:16:56;;;;;;;5.23;3.30;;;10.70;3.70;;;;;;5028351;28;20440;-70
2023/01/04 17:19:22;;;;;;;2.53;2.27;;;10.70;3.10;;;;;;5029858;28;20982;-70
2023/01/04 17:21:48;;;;;;;4.07;2.10;;;10.70;4.70;;;;;;5028657;28;20460;-71
2023/01/04 17:24:14;;;;;;;2.93;1.90;;;10.70;5.40;;;;;;5028738;28;20471;-69
2023/01/04 17:26:40;;;;;;;2.80;2.07;;;10.60;8.30;;;;;;5030546;28;20561;-70
2023/01/04 17:29:06;;;;;;;3.50;2.20;;;10.60;8.10;;;;;;5034842;28;20481;-70
2023/01/04 17:31:38;;;;;;;2.63;1.63;;;10.60;9.70;;;;;;5029616;28;20529;-71
2023/01/04 17:34:04;;;;;;;2.10;1.90;;;10.60;10.70;;;;;;5024090;28;20918;-70
2023/01/04 17:36:29;;;;;;;7.57;4.23;;;10.60;11.20;;;;;;5026159;28;20482;-71
2023/01/04 17:38:58;;;;;;;5.07;3.50;;;10.60;12.90;;;;;;5023435;28;20277;-71
2023/01/04 17:41:25;;;;;;;3.50;2.13;;;10.60;13.60;;;;;;5037984;28;20691;-72
2023/01/04 17:43:58;;;;;;;3.87;1.97;;;10.50;14.70;;;;;;5042368;28;20431;-68
2023/01/04 17:46:25;;;;;;;2.27;2.00;;;11.10;16.80;;;;;;5033001;28;20505;-70
2023/01/04 17:48:52;;;;;;;3.90;2.00;;;10.50;18.10;;;;;;5028274;28;20436;-70
2023/01/04 17:51:20;;;;;;;2.70;1.80;;;10.50;17.70;;;;;;5034770;28;20787;-70
2023/01/04 17:53:47;;;;;;;3.00;2.00;;;10.50;17.70;;;;;;5038403;28;20899;-70
2023/01/04 17:56:15;;;;;;;2.27;1.53;;;10.50;18.50;;;;;;5029318;28;20507;-70
2023/01/04 17:58:41;;;;;;;1.50;1.40;;;10.40;19.10;;;;;;5029142;28;20424;-70
2023/01/04 18:01:28;;;;;;;2.23;1.67;;;10.40;20.70;;;;;;5027408;28;20423;-70
2023/01/04 18:03:56;;;;;;;1.53;1.43;;;10.40;21.60;;;;;;5027604;28;20416;-70
2023/01/04 18:06:26;;;;;;;2.03;1.63;;;10.50;22.10;;;;;;5029765;28;20407;-70
2023/01/04 18:08:51;;;;;;;3.70;1.83;;;10.40;23.40;;;;;;5028979;28;20483;-71
2023/01/04 18:11:17;;;;;;;4.57;1.80;;;10.40;23.00;;;;;;5028477;28;20432;-70
2023/01/04 18:13:46;;;;;;;2.27;1.70;;;10.50;22.20;;;;;;5028885;28;20253;-70
2023/01/04 18:16:15;;;;;;;9.63;2.17;;;10.40;22.60;;;;;;5028464;28;20248;-71
2023/01/04 18:18:41;;;;;;;2.10;1.80;;;10.50;25.20;;;;;;5025737;28;20420;-69
2023/01/04 18:21:14;;;;;;;1.80;1.70;;;10.50;22.90;;;;;;5028458;28;20506;-70
2023/01/04 18:23:40;;;;;;;3.70;2.10;;;10.50;23.90;;;;;;5037080;28;20721;-68
2023/01/04 18:26:06;;;;;;;3.30;1.80;;;10.50;24.60;;;;;;5028795;28;20428;-69
2023/01/04 18:28:33;;;;;;;2.40;1.90;;;10.40;26.80;;;;;;5028498;28;20283;-71
2023/01/04 18:30:59;;;;;;;2.90;1.80;;;10.40;28.60;;;;;;5029549;28;20444;-68
2023/01/04 18:33:25;;;;;;;1.90;1.70;;;10.40;32.30;;;;;;5029124;28;20420;-71
2023/01/04 18:35:51;;;;;;;2.07;1.67;;;10.30;33.20;;;;;;5027234;28;20447;-69
2023/01/04 18:38:16;;;;;;;3.47;2.70;;;10.80;35.70;;;;;;5028480;28;20567;-70
2023/01/04 18:40:42;;;;;;;2.50;2.20;;;10.30;34.60;;;;;;5026043;28;20232;-69
2023/01/04 18:43:07;;;;;;;2.27;1.73;;;10.30;38.10;;;;;;5028033;28;20354;-71
2023/01/04 18:45:33;;;;;;;2.37;2.17;;;10.20;38.00;;;;;;5023949;28;20648;-70
2023/01/04 18:47:58;;;;;;;2.40;2.00;;;10.20;38.10;;;;;;5044477;28;20174;-69
2023/01/04 18:50:24;;;;;;;1.83;1.73;;;10.20;38.20;;;;;;5023289;28;20671;-70
2023/01/04 18:52:49;;;;;;;2.40;2.10;;;10.30;38.20;;;;;;5038203;28;20181;-71
2023/01/04 18:55:15;;;;;;;2.60;2.20;;;10.20;38.20;;;;;;5032723;28;20187;-69
2023/01/04 18:57:40;;;;;;;2.30;2.10;;;10.30;38.20;;;;;;5027595;28;20659;-70
2023/01/04 19:00:08;;;;;;;2.60;1.90;;;10.20;38.10;;;;;;5027727;28;20193;-71
2023/01/04 19:02:33;;;;;;;1.93;1.73;;;10.20;38.10;;;;;;5027806;28;20181;-70
2023/01/04 19:04:59;;;;;;;2.60;2.40;;;10.20;38.10;;;;;;5026673;28;21030;-70
2023/01/04 19:07:25;;;;;;;5.87;1.90;;;10.20;38.20;;;;;;5028498;28;20792;-69
2023/01/04 19:09:51;;;;;;;5.07;3.27;;;10.20;38.10;;;;;;5028623;28;20635;-69
2023/01/04 19:12:17;;;;;;;2.67;2.00;;;10.10;38.20;;;;;;5026597;28;20460;-70
2023/01/04 19:14:43;;;;;;;4.43;2.00;;;10.10;45.30;;;;;;5027983;28;20921;-69
2023/01/04 19:17:09;;;;;;;2.80;2.10;;;10.10;46.50;;;;;;5026591;28;20429;-69
2023/01/04 19:19:35;;;;;;;4.50;3.10;;;10.10;46.80;;;;;;5030001;28;20211;-71
2023/01/04 19:22:00;;;;;;;2.17;1.87;;;10.10;46.70;;;;;;5027552;28;20429;-68
2023/01/04 19:24:26;;;;;;;3.10;2.40;;;10.10;43.20;;;;;;5027881;28;20174;-70
2023/01/04 19:26:53;;;;;;;4.67;4.10;;;10.10;38.20;;;;;;5028863;28;20178;-71
2023/01/04 19:29:19;;;;;;;5.53;2.90;;;10.10;38.10;;;;;;5035888;28;20174;-70
2023/01/04 19:31:45;;;;;;;2.33;1.93;;;10.20;38.10;;;;;;5027424;28;20483;-68
2023/01/04 19:34:11;;;;;;;2.97;2.40;;;10.20;38.20;;;;;;5027535;28;20440;-69
2023/01/04 19:36:37;;;;;;;2.40;2.20;;;10.20;38.10;;;;;;5027149;28;20540;-70
2023/01/04 19:39:06;;;;;;;2.67;2.10;;;10.20;38.10;;;;;;5026990;28;20194;-67
2023/01/04 19:41:33;;;;;;;2.27;1.80;;;10.20;38.10;;;;;;5026791;28;20990;-70
2023/01/04 19:44:01;;;;;;;4.47;2.60;;;10.30;38.20;;;;;;5028273;28;20507;-69
2023/01/04 19:46:27;;;;;;;2.07;1.90;;;10.30;38.20;;;;;;5027929;28;21915;-70
2023/01/04 19:48:53;;;;;;;3.63;2.47;;;10.40;40.80;;;;;;5026704;28;20420;-71
2023/01/04 19:51:19;;;;;;;1.90;1.80;;;10.40;38.20;;;;;;5030193;28;20666;-69
2023/01/04 19:53:45;;;;;;;3.20;2.30;;;10.40;38.10;;;;;;5019535;28;20520;-70
2023/01/04 19:56:12;;;;;;;2.67;2.00;;;10.50;33.80;;;;;;5026247;28;20485;-70
2023/01/04 19:58:38;;;;;;;2.47;1.80;;;10.50;30.00;;;;;;5027881;28;20177;-70
2023/01/04 20:01:04;;;;;;;5.10;2.20;;;10.50;31.90;;;;;;5026830;28;20460;-68
2023/01/04 20:03:31;;;;;;;2.00;1.80;;;10.50;36.80;;;;;;5026628;28;20428;-70
2023/01/04 20:06:05;;;;;;;2.20;1.83;;;10.50;28.90;;;;;;5027846;28;20417;-70
2023/01/04 20:08:31;;;;;;;2.53;2.00;;;10.60;28.00;;;;;;5026368;28;20909;-71
2023/01/04 20:10:58;;;;;;;2.67;1.90;;;10.60;25.60;;;;;;5026789;28;20529;-70
2023/01/04 20:13:24;;;;;;;1.70;1.60;;;10.60;25.20;;;;;;5028890;28;20428;-70
2023/01/04 20:15:50;;;;;;;3.83;1.80;;;10.70;23.70;;;;;;5027543;28;20428;-70
2023/01/04 20:18:16;;;;;;;6.53;3.33;;;10.70;23.20;;;;;;5027026;28;20535;-71
2023/01/04 20:20:46;;;;;;;4.40;1.50;;;10.70;22.60;;;;;;5024674;28;20892;-70
2023/01/04 20:23:12;;;;;;;7.83;1.70;;;10.80;22.10;;;;;;5027005;28;20533;-68
2023/01/04 20:25:39;;;;;;;2.50;1.67;;;10.80;19.70;;;;;;5018653;28;20443;-70
2023/01/04 20:28:04;;;;;;;3.00;1.77;;;10.80;18.60;;;;;;5029960;28;20992;-70
2023/01/04 20:30:30;;;;;;;2.40;1.40;;;11.30;18.80;;;;;;5031110;28;20441;-70
2023/01/04 20:32:55;;;;;;;2.40;1.50;;;10.90;16.70;;;;;;5029921;28;20671;-70
2023/01/04 20:35:23;;;;;;;4.10;1.43;;;10.90;16.40;;;;;;5031602;28;20182;-71
2023/01/04 20:37:52;;;;;;;2.30;1.50;;;11.00;15.40;;;;;;5031326;28;20174;-69
2023/01/04 20:40:19;;;;;;;2.90;1.70;;;11.00;14.90;;;;;;5030020;28;20547;-69
2023/01/04 20:45:29;;;;;;;4.60;1.80;;;11.00;14.30;;;;;;5031059;28;20434;-70
2023/01/04 20:47:54;;;;;;;2.27;1.60;;;11.00;12.80;;;;;;5031214;28;20421;-71
2023/01/04 20:50:20;;;;;;;3.17;1.97;;;11.10;11.50;;;;;;5030648;28;20181;-71
2023/01/04 20:52:45;;;;;;;4.70;2.77;;;11.10;13.50;;;;;;5041946;28;20255;-70
2023/01/04 20:55:11;;;;;;;3.43;2.60;;;11.10;12.90;;;;;;5036060;28;20174;-70
2023/01/04 20:57:36;;;;;;;1.97;1.70;;;11.10;14.50;;;;;;5029723;28;20230;-70
2023/01/04 21:00:03;;;;;;;2.80;1.60;;;11.10;17.10;;;;;;5028219;28;20698;-71
2023/01/04 21:02:29;;;;;;;2.00;1.80;;;11.00;18.50;;;;;;5027382;28;20975;-69
2023/01/04 21:04:54;;;;;;;1.93;1.60;;;11.00;18.70;;;;;;5019681;28;20448;-69
2023/01/04 21:07:20;;;;;;;3.13;1.83;;;11.00;19.30;;;;;;5031123;28;20170;-69
2023/01/04 21:09:45;;;;;;;1.50;1.40;;;11.00;20.10;;;;;;5027793;28;20224;-70
2023/01/04 21:12:11;;;;;;;1.83;1.63;;;11.00;19.30;;;;;;5025273;28;20664;-70
2023/01/04 21:14:37;;;;;;;1.70;1.30;;;11.10;19.70;;;;;;5030099;28;20265;-69
2023/01/04 21:17:03;;;;;;;2.80;1.53;;;11.10;18.30;;;;;;5027093;28;20173;-69
2023/01/04 21:19:29;;;;;;;1.57;1.47;;;11.20;17.50;;;;;;5030191;28;20667;-69
2023/01/04 21:21:54;;;;;;;1.47;1.37;;;11.20;17.20;;;;;;5022305;28;20464;-69
2023/01/04 21:24:20;;;;;;;4.33;2.70;;;11.30;17.00;;;;;;5030867;28;20319;-70
2023/01/04 21:26:46;;;;;;;3.13;2.03;;;11.20;17.20;;;;;;5030036;28;20240;-69
2023/01/04 21:29:11;;;;;;;1.43;1.33;;;11.20;16.60;;;;;;5029555;28;20652;-69
2023/01/04 21:31:37;;;;;;;1.47;1.30;;;11.20;16.10;;;;;;5027581;28;20202;-69
2023/01/04 21:34:02;;;;;;;1.60;1.50;;;11.20;15.30;;;;;;5031224;28;20671;-71
2023/01/04 21:36:28;;;;;;;2.80;1.57;;;11.30;14.50;;;;;;5032623;28;20262;-69